Time;durP1;ratioP1;P1;durP2;ratioP2;P2;SDS_P1;SDS_P2;PMS_P1;PMS_P2;Temp;Humidity;BMP_temperature;BMP_pressure;BME280_temperature;BME280_humidity;BME280_pressure;Samples;Min_cycle;Max_cycle;Signal;HPM_P1;HPM_P2
2023/04/30 00:02:10;;;;;;;;;;;;;;;18.62;44.23;100614.17;102871;1295;61458;-82
2023/04/30 00:04:36;;;;;;;;;;;;;;;18.63;44.30;100617.16;102912;1294;61745;-83
2023/04/30 00:07:13;;;;;;;;;;;;;;;18.63;44.22;100617.52;102985;1297;73484;-83
2023/04/30 00:09:58;;;;;;;;;;;;;;;;;;;;;
2023/04/30 00:12:31;;;;;;;;;;;;;;;18.63;44.17;100613.59;102868;1293;61466;-83
2023/04/30 00:14:56;;;;;;;;;;;;;;;18.62;44.29;100610.79;102986;1297;61371;-83
2023/04/30 00:17:25;;;;;;;;;;;;;;;18.63;44.27;100611.63;102986;1294;73475;-82
2023/04/30 00:19:54;;;;;;;;;;;;;;;18.63;44.18;100616.06;102958;1297;74343;-83
2023/04/30 00:22:26;;;;;;;;;;;;;;;18.62;44.22;100612.77;103370;1286;61409;-84
2023/04/30 00:24:52;;;;;;;;;;;;;;;18.62;44.13;100613.09;103676;1288;61355;-82
2023/04/30 00:27:18;;;;;;;;;;;;;;;18.62;44.14;100612.05;103765;1286;61327;-84
2023/04/30 00:29:53;;;;;;;;;;;;;;;18.62;44.24;100608.49;103709;1288;74495;-84
2023/04/30 00:32:28;;;;;;;;;;;;;;;18.62;44.20;100610.27;103512;1291;61423;-82
2023/04/30 00:35:13;;;;;;;;;;;;;;;18.62;44.14;100604.75;103674;1289;61708;-83
2023/04/30 00:37:39;;;;;;;;;;;;;;;18.62;44.34;100604.92;103634;1289;72630;-82
2023/04/30 00:40:08;;;;;;;;;;;;;;;18.62;44.24;100601.02;103447;1289;61317;-82
2023/04/30 00:42:37;;;;;;;;;;;;;;;18.62;44.22;100602.09;103503;1289;61480;-83
2023/04/30 00:45:22;;;;;;;;;;;;;;;18.62;44.24;100598.52;102860;1298;61546;-84
2023/04/30 00:48:04;;;;;;;;;;;;;;;18.62;44.31;100599.39;102819;1294;73372;-83
2023/04/30 00:50:33;;;;;;;;;;;;;;;18.61;44.15;100601.02;102862;1295;74402;-82
2023/04/30 00:53:07;;;;;;;;;;;;;;;18.62;44.30;100598.55;102917;1295;61386;-83
2023/04/30 00:55:39;;;;;;;;;;;;;;;18.61;44.25;100596.27;102910;1294;61460;-82
2023/04/30 00:58:15;;;;;;;;;;;;;;;18.61;44.33;100595.34;102839;1295;72513;-83
2023/04/30 01:00:45;;;;;;;;;;;;;;;18.61;44.19;100598.38;102871;1299;75587;-82
2023/04/30 01:03:21;;;;;;;;;;;;;;;18.61;44.21;100595.50;102928;1291;61484;-82
2023/04/30 01:05:59;;;;;;;;;;;;;;;18.61;44.23;100592.70;103045;1291;61614;-82
2023/04/30 01:08:37;;;;;;;;;;;;;;;18.61;44.32;100594.27;102943;1295;73372;-83
2023/04/30 01:11:41;;;;;;;;;;;;;;;18.61;44.26;100592.52;103019;1296;74958;-84
2023/04/30 01:14:11;;;;;;;;;;;;;;;18.61;44.25;100592.88;102489;1300;61289;-82
2023/04/30 01:16:45;;;;;;;;;;;;;;;18.61;44.46;100590.38;102523;1299;61509;-83
2023/04/30 01:19:31;;;;;;;;;;;;;;;18.61;44.39;100590.02;102501;1301;73755;-83
2023/04/30 01:22:00;;;;;;;;;;;;;;;18.60;44.35;100587.92;102551;1300;74549;-83
2023/04/30 01:24:59;;;;;;;;;;;;;;;18.60;44.31;100587.20;103010;1291;63167;-82
2023/04/30 01:27:33;;;;;;;;;;;;;;;18.61;44.25;100587.36;102913;1292;61327;-83
2023/04/30 01:29:59;;;;;;;;;;;;;;;18.60;44.33;100588.08;102890;1297;73298;-83
2023/04/30 01:32:33;;;;;;;;;;;;;;;18.60;44.37;100587.59;102957;1292;74906;-83
2023/04/30 01:35:10;;;;;;;;;;;;;;;18.60;44.38;100587.55;102910;1297;61448;-82
2023/04/30 01:37:43;;;;;;;;;;;;;;;18.59;44.22;100584.39;102907;1294;61510;-83
2023/04/30 01:40:29;;;;;;;;;;;;;;;18.60;44.33;100582.58;102935;1292;72502;-83
2023/04/30 01:43:07;;;;;;;;;;;;;;;18.59;44.37;100580.12;102992;1295;74536;-82
2023/04/30 01:45:41;;;;;;;;;;;;;;;18.59;44.32;100577.98;103332;1290;61297;-81
2023/04/30 01:48:33;;;;;;;;;;;;;;;18.59;44.34;100575.11;103607;1288;61371;-83
2023/04/30 01:51:07;;;;;;;;;;;;;;;18.59;44.30;100577.09;102926;1295;73474;-82
2023/04/30 01:53:39;;;;;;;;;;;;;;;18.59;44.34;100575.50;102880;1294;75436;-82
2023/04/30 01:56:05;;;;;;;;;;;;;;;18.58;44.36;100577.48;103068;1293;61461;-82
2023/04/30 01:58:36;;;;;;;;;;;;;;;18.59;44.41;100577.48;102996;1297;61465;-82
2023/04/30 02:01:05;;;;;;;;;;;;;;;18.59;44.26;100578.55;102807;1300;72326;-84
2023/04/30 02:03:31;;;;;;;;;;;;;;;18.58;44.47;100584.09;102932;1295;74390;-83
2023/04/30 02:06:06;;;;;;;;;;;;;;;18.59;44.37;100580.86;103027;1301;61354;-82
2023/04/30 02:08:32;;;;;;;;;;;;;;;18.58;44.35;100583.58;102965;1296;61402;-82
2023/04/30 02:11:06;;;;;;;;;;;;;;;18.57;44.33;100582.55;102891;1297;73436;-82
2023/04/30 02:13:37;;;;;;;;;;;;;;;18.57;44.28;100581.11;102831;1294;75264;-82
2023/04/30 02:16:06;;;;;;;;;;;;;;;18.57;44.32;100580.40;102977;1295;61260;-83
2023/04/30 02:18:40;;;;;;;;;;;;;;;18.57;44.35;100580.06;102984;1297;61342;-82
2023/04/30 02:21:11;;;;;;;;;;;;;;;18.58;44.43;100575.44;102892;1294;73586;-83
2023/04/30 02:23:40;;;;;;;;;;;;;;;18.57;44.57;100574.73;102958;1294;74571;-82
2023/04/30 02:26:15;;;;;;;;;;;;;;;18.56;44.42;100573.70;102944;1294;61554;-83
2023/04/30 02:28:41;;;;;;;;;;;;;;;18.57;44.28;100575.66;103330;1288;61722;-83
2023/04/30 02:31:09;;;;;;;;;;;;;;;18.57;44.46;100576.17;103650;1289;62431;-83
2023/04/30 02:33:38;;;;;;;;;;;;;;;18.57;44.37;100579.04;103640;1290;74513;-83
2023/04/30 02:36:18;;;;;;;;;;;;;;;18.56;44.35;100581.00;103554;1286;61378;-83
2023/04/30 02:38:55;;;;;;;;;;;;;;;18.56;44.44;100582.79;103574;1289;62434;-82
2023/04/30 02:41:27;;;;;;;;;;;;;;;18.56;44.46;100580.70;103589;1286;72483;-82
2023/04/30 02:43:53;;;;;;;;;;;;;;;18.56;44.37;100580.84;103597;1291;75275;-84
2023/04/30 02:46:22;;;;;;;;;;;;;;;18.56;44.42;100577.83;103636;1292;61403;-83
2023/04/30 02:48:50;;;;;;;;;;;;;;;18.56;44.45;100577.83;103557;1285;61387;-82
2023/04/30 02:51:27;;;;;;;;;;;;;;;18.56;44.60;100579.08;103753;1286;72496;-83
2023/04/30 02:54:00;;;;;;;;;;;;;;;18.56;44.40;100578.76;103733;1291;74471;-82
2023/04/30 02:56:33;;;;;;;;;;;;;;;18.55;44.41;100571.48;103588;1291;61423;-83
2023/04/30 02:59:06;;;;;;;;;;;;;;;18.56;44.46;100575.71;103589;1286;61336;-83
2023/04/30 03:01:44;;;;;;;;;;;;;;;;;;;;;
2023/04/30 03:04:10;;;;;;;;;;;;;;;18.55;44.47;100577.53;103670;1285;73285;-84
2023/04/30 03:06:47;;;;;;;;;;;;;;;18.55;44.41;100575.41;103641;1286;61400;-83
2023/04/30 03:09:18;;;;;;;;;;;;;;;18.55;44.54;100575.20;103563;1291;61398;-82
2023/04/30 03:11:53;;;;;;;;;;;;;;;18.55;44.49;100577.36;103698;1288;72425;-84
2023/04/30 03:14:30;;;;;;;;;;;;;;;18.55;44.42;100578.09;103621;1290;75761;-83
2023/04/30 03:16:58;;;;;;;;;;;;;;;18.55;44.58;100577.53;103647;1292;61406;-82
2023/04/30 03:19:38;;;;;;;;;;;;;;;;;;;;;
2023/04/30 03:22:13;;;;;;;;;;;;;;;18.55;44.43;100575.06;103627;1288;72060;-83
2023/04/30 03:24:59;;;;;;;;;;;;;;;18.55;44.58;100573.98;103591;1290;74462;-83
2023/04/30 03:27:27;;;;;;;;;;;;;;;18.55;44.48;100579.50;103646;1286;62530;-83
2023/04/30 03:29:57;;;;;;;;;;;;;;;18.55;44.46;100583.23;103635;1287;61247;-84
2023/04/30 03:32:39;;;;;;;;;;;;;;;18.55;44.57;100579.31;103645;1286;72473;-83
2023/04/30 03:35:15;;;;;;;;;;;;;;;18.55;44.54;100584.48;103704;1288;74416;-83
2023/04/30 03:37:40;;;;;;;;;;;;;;;18.55;44.54;100587.52;103514;1291;61391;-83
2023/04/30 03:40:18;;;;;;;;;;;;;;;18.55;44.63;100593.73;103336;1286;61464;-82
2023/04/30 03:42:47;;;;;;;;;;;;;;;18.55;44.51;100598.19;103462;1292;73359;-83
2023/04/30 03:45:13;;;;;;;;;;;;;;;18.55;44.48;100600.34;103343;1292;74335;-83
2023/04/30 03:48:03;;;;;;;;;;;;;;;18.56;44.60;100603.15;103435;1292;61378;-82
2023/04/30 03:50:36;;;;;;;;;;;;;;;18.56;44.42;100603.85;103366;1293;61330;-82
2023/04/30 03:53:02;;;;;;;;;;;;;;;18.56;44.46;100607.60;103379;1292;72581;-84
2023/04/30 03:55:36;;;;;;;;;;;;;;;18.56;44.44;100605.83;103374;1292;75744;-83
2023/04/30 03:58:04;;;;;;;;;;;;;;;18.56;44.59;100607.25;103590;1291;62428;-83
2023/04/30 04:00:42;;;;;;;;;;;;;;;18.56;44.54;100609.19;103438;1295;61332;-83
2023/04/30 04:03:10;;;;;;;;;;;;;;;18.57;44.54;100605.59;103536;1286;73301;-83
2023/04/30 04:05:38;;;;;;;;;;;;;;;18.56;44.55;100609.16;103303;1295;74323;-83
2023/04/30 04:08:07;;;;;;;;;;;;;;;18.56;44.42;100615.77;103322;1289;61345;-82
2023/04/30 04:10:35;;;;;;;;;;;;;;;18.57;44.57;100616.65;103634;1287;61329;-82
2023/04/30 04:13:05;;;;;;;;;;;;;;;18.57;44.53;100616.98;103700;1287;72686;-83
2023/04/30 04:15:30;;;;;;;;;;;;;;;18.57;44.64;100619.13;103616;1291;74318;-83
2023/04/30 04:17:56;;;;;;;;;;;;;;;18.56;44.60;100619.85;103712;1292;61384;-83
2023/04/30 04:20:27;;;;;;;;;;;;;;;18.57;44.57;100625.01;103536;1292;62556;-84
2023/04/30 04:22:52;;;;;;;;;;;;;;;18.57;44.44;100628.73;103606;1290;73277;-82
2023/04/30 04:25:24;;;;;;;;;;;;;;;18.57;44.46;100627.48;103604;1292;74379;-84
2023/04/30 04:27:58;;;;;;;;;;;;;;;18.57;44.56;100630.52;103606;1284;62476;-83
2023/04/30 04:30:27;;;;;;;;;;;;;;;18.58;44.47;100630.48;103560;1286;61282;-83
2023/04/30 04:33:01;;;;;;;;;;;;;;;18.58;44.41;100627.30;103707;1286;72696;-83
2023/04/30 04:35:38;;;;;;;;;;;;;;;18.57;44.53;100627.46;103605;1289;74353;-83
2023/04/30 04:38:13;;;;;;;;;;;;;;;18.58;44.50;100626.38;103610;1291;61378;-83
2023/04/30 04:40:38;;;;;;;;;;;;;;;18.58;44.49;100628.50;103668;1288;61409;-83
2023/04/30 04:43:08;;;;;;;;;;;;;;;18.59;44.58;100630.21;103645;1286;73970;-83
2023/04/30 04:45:34;;;;;;;;;;;;;;;18.59;44.61;100628.44;103685;1290;61387;-82
2023/04/30 04:48:09;;;;;;;;;;;;;;;18.58;44.50;100633.10;103589;1290;62713;-83
2023/04/30 04:50:35;;;;;;;;;;;;;;;18.59;44.51;100633.61;103452;1286;61269;-84
2023/04/30 04:53:04;;;;;;;;;;;;;;;18.59;44.45;100632.90;103629;1285;72676;-83
2023/04/30 04:55:33;;;;;;;;;;;;;;;18.59;44.47;100631.64;103545;1286;75299;-83
2023/04/30 04:57:59;;;;;;;;;;;;;;;18.59;44.47;100633.77;103575;1291;61390;-83
2023/04/30 05:00:29;;;;;;;;;;;;;;;18.59;44.45;100635.39;103605;1289;61214;-82
2023/04/30 05:02:58;;;;;;;;;;;;;;;18.60;44.62;100633.91;103596;1286;71998;-83
2023/04/30 05:05:41;;;;;;;;;;;;;;;18.60;44.59;100633.54;103574;1289;74473;-83
2023/04/30 05:08:07;;;;;;;;;;;;;;;18.61;44.58;100631.89;103594;1286;61381;-83
2023/04/30 05:10:44;;;;;;;;;;;;;;;18.62;44.62;100631.12;103648;1286;61391;-83
2023/04/30 05:13:17;;;;;;;;;;;;;;;18.63;44.80;100633.39;103674;1292;73782;-82
2023/04/30 05:15:43;;;;;;;;;;;;;;;18.64;44.69;100637.23;103507;1290;75755;-83
2023/04/30 05:18:16;;;;;;;;;;;;;;;18.65;44.65;100641.64;103599;1285;61883;-83
2023/04/30 05:20:44;;;;;;;;;;;;;;;18.66;44.74;100643.33;103607;1289;61777;-83
2023/04/30 05:23:12;;;;;;;;;;;;;;;18.67;44.67;100641.50;103599;1285;72496;-83
2023/04/30 05:25:47;;;;;;;;;;;;;;;18.68;44.68;100648.22;103663;1286;61380;-82
2023/04/30 05:28:20;;;;;;;;;;;;;;;18.69;44.60;100649.17;103588;1289;62497;-83
2023/04/30 05:30:51;;;;;;;;;;;;;;;18.71;44.73;100649.46;103619;1290;61289;-84
2023/04/30 05:33:20;;;;;;;;;;;;;;;18.71;44.72;100650.45;103682;1286;72395;-83
2023/04/30 05:35:49;;;;;;;;;;;;;;;18.73;44.71;100652.51;103565;1286;74485;-83
2023/04/30 05:38:20;;;;;;;;;;;;;;;18.75;44.86;100651.67;103516;1286;61288;-83
2023/04/30 05:40:47;;;;;;;;;;;;;;;18.75;44.82;100648.96;103644;1289;62637;-83
2023/04/30 05:43:15;;;;;;;;;;;;;;;18.77;44.80;100650.85;103532;1289;61314;-83
2023/04/30 05:45:47;;;;;;;;;;;;;;;18.78;44.96;100652.92;103484;1291;74529;-82
2023/04/30 05:48:15;;;;;;;;;;;;;;;18.80;44.78;100651.56;103574;1289;61388;-84
2023/04/30 05:50:52;;;;;;;;;;;;;;;18.81;44.70;100653.48;103590;1289;61269;-83
2023/04/30 05:53:27;;;;;;;;;;;;;;;18.82;44.86;100653.73;103612;1288;72340;-83
2023/04/30 05:55:55;;;;;;;;;;;;;;;18.82;45.06;100654.61;103598;1288;73453;-83
2023/04/30 05:58:24;;;;;;;;;;;;;;;18.84;44.89;100657.37;103658;1285;61387;-83
2023/04/30 06:00:53;;;;;;;;;;;;;;;18.85;44.90;100654.48;103632;1288;62571;-83
2023/04/30 06:03:31;;;;;;;;;;;;;;;18.86;44.88;100654.57;103656;1286;72416;-82
2023/04/30 06:05:59;;;;;;;;;;;;;;;18.87;44.93;100655.02;103582;1286;74147;-83
2023/04/30 06:08:25;;;;;;;;;;;;;;;18.87;44.92;100654.31;103613;1289;61464;-83
2023/04/30 06:10:53;;;;;;;;;;;;;;;18.88;44.95;100655.52;103640;1287;61279;-83
2023/04/30 06:13:31;;;;;;;;;;;;;;;18.88;44.88;100659.40;103631;1292;73374;-83
2023/04/30 06:15:57;;;;;;;;;;;;;;;18.90;44.99;100659.32;103671;1290;74585;-83
2023/04/30 06:18:28;;;;;;;;;;;;;;;18.91;45.05;100664.78;103665;1285;61391;-83
2023/04/30 06:20:53;;;;;;;;;;;;;;;18.91;44.99;100663.52;103675;1285;62435;-84
2023/04/30 06:23:26;;;;;;;;;;;;;;;18.92;45.12;100664.89;103627;1286;61404;-83
2023/04/30 06:25:55;;;;;;;;;;;;;;;18.93;44.99;100661.09;103618;1285;74447;-83
2023/04/30 06:28:21;;;;;;;;;;;;;;;18.94;45.06;100664.05;103695;1285;61320;-82
2023/04/30 06:30:53;;;;;;;;;;;;;;;18.94;45.02;100664.56;103579;1289;61387;-83
2023/04/30 06:33:20;;;;;;;;;;;;;;;18.95;45.00;100663.26;103680;1286;72512;-83
2023/04/30 06:35:54;;;;;;;;;;;;;;;18.96;44.89;100664.86;103626;1285;61384;-85
2023/04/30 06:38:22;;;;;;;;;;;;;;;18.97;45.22;100666.57;103535;1289;61362;-83
2023/04/30 06:40:51;;;;;;;;;;;;;;;18.97;45.05;100668.34;103600;1286;61309;-83
2023/04/30 06:43:17;;;;;;;;;;;;;;;18.97;45.04;100662.43;103688;1285;73275;-82
2023/04/30 06:45:48;;;;;;;;;;;;;;;18.98;45.11;100664.70;103613;1289;75345;-84
2023/04/30 06:48:19;;;;;;;;;;;;;;;18.98;45.04;100661.46;103656;1288;61390;-83
2023/04/30 06:50:47;;;;;;;;;;;;;;;18.98;44.98;100664.14;103624;1289;61372;-83
2023/04/30 06:53:15;;;;;;;;;;;;;;;18.99;45.14;100662.15;103572;1286;61518;-83
2023/04/30 06:55:50;;;;;;;;;;;;;;;18.99;45.07;100666.24;103570;1285;74438;-83
2023/04/30 06:58:19;;;;;;;;;;;;;;;19.00;45.04;100665.11;103690;1286;61387;-83
2023/04/30 07:00:51;;;;;;;;;;;;;;;19.00;45.11;100667.80;103631;1288;62491;-83
2023/04/30 07:03:28;;;;;;;;;;;;;;;19.00;45.11;100666.89;103602;1290;72346;-83
2023/04/30 07:05:53;;;;;;;;;;;;;;;19.00;45.00;100664.91;102867;1288;1081383;-83
2023/04/30 07:08:19;;;;;;;;;;;;;;;19.01;45.21;100667.40;103537;1285;62544;-83
2023/04/30 07:10:45;;;;;;;;;;;;;;;19.00;45.10;100665.61;103592;1286;61333;-82
2023/04/30 07:13:15;;;;;;;;;;;;;;;19.01;45.01;100669.66;103626;1288;73491;-82
2023/04/30 07:15:51;;;;;;;;;;;;;;;19.02;45.03;100669.61;103676;1288;74308;-83
2023/04/30 07:18:24;;;;;;;;;;;;;;;19.01;45.12;100668.59;103627;1285;61378;-82
2023/04/30 07:20:54;;;;;;;;;;;;;;;19.02;45.12;100671.39;103608;1289;62477;-82
2023/04/30 07:23:47;;;;;;;;;;;;;;;19.02;45.10;100668.19;103571;1286;72445;-84
2023/04/30 07:26:25;;;;;;;;;;;;;;;19.02;45.11;100666.19;103546;1286;74586;-84
2023/04/30 07:28:55;;;;;;;;;;;;;;;19.03;45.15;100665.64;103671;1288;61224;-83
2023/04/30 07:31:23;;;;;;;;;;;;;;;19.03;45.03;100668.13;103746;1286;61367;-83
2023/04/30 07:33:54;;;;;;;;;;;;;;;19.03;45.00;100669.16;103584;1286;72296;-83
2023/04/30 07:36:20;;;;;;;;;;;;;;;19.03;45.32;100666.83;103617;1285;75439;-83
2023/04/30 07:38:48;;;;;;;;;;;;;;;19.03;45.21;100662.91;103611;1286;61312;-83
2023/04/30 07:41:19;;;;;;;;;;;;;;;19.03;45.14;100661.66;103563;1286;61399;-83
2023/04/30 07:43:45;;;;;;;;;;;;;;;19.03;45.12;100662.92;103507;1286;72539;-83
2023/04/30 07:46:13;;;;;;;;;;;;;;;19.03;45.15;100660.95;103522;1290;74264;-84
2023/04/30 07:48:48;;;;;;;;;;;;;;;19.03;45.22;100661.48;103628;1286;61358;-84
2023/04/30 07:51:14;;;;;;;;;;;;;;;19.03;45.11;100660.60;103572;1290;61506;-83
2023/04/30 07:53:42;;;;;;;;;;;;;;;19.03;45.00;100661.12;103567;1286;73467;-83
2023/04/30 07:56:28;;;;;;;;;;;;;;;19.03;45.13;100660.97;103510;1286;76077;-83
2023/04/30 07:59:02;;;;;;;;;;;;;;;19.03;45.01;100661.48;103654;1285;61372;-82
2023/04/30 08:01:31;;;;;;;;;;;;;;;19.03;45.11;100656.86;103715;1286;61474;-83
2023/04/30 08:03:56;;;;;;;;;;;;;;;19.03;45.21;100657.25;103740;1286;72556;-84
2023/04/30 08:06:22;;;;;;;;;;;;;;;19.03;45.17;100652.92;103657;1286;61375;-83
2023/04/30 08:08:49;;;;;;;;;;;;;;;19.03;45.13;100651.51;103734;1291;62521;-83
2023/04/30 08:11:15;;;;;;;;;;;;;;;19.03;45.13;100649.54;103824;1286;62292;-82
2023/04/30 08:13:43;;;;;;;;;;;;;;;19.04;45.11;100646.66;104084;1291;61461;-81
2023/04/30 08:16:08;;;;;;;;;;;;;;;19.04;45.14;100645.42;104028;1289;61394;-83
2023/04/30 08:18:43;;;;;;;;;;;;;;;19.03;45.18;100637.74;103759;1290;61317;-83
2023/04/30 08:21:15;;;;;;;;;;;;;;;19.04;45.19;100631.86;104155;1285;61388;-82
2023/04/30 08:23:40;;;;;;;;;;;;;;;19.04;45.05;100633.46;103731;1286;61317;-84
2023/04/30 08:26:09;;;;;;;;;;;;;;;19.04;45.22;100632.90;103601;1284;61394;-83
2023/04/30 08:28:40;;;;;;;;;;;;;;;19.04;45.06;100629.49;103682;1291;61374;-83
2023/04/30 08:31:11;;;;;;;;;;;;;;;19.04;44.99;100623.09;103620;1288;61390;-82
2023/04/30 08:33:37;;;;;;;;;;;;;;;19.05;45.05;100621.82;103883;1290;72502;-83
2023/04/30 08:36:03;;;;;;;;;;;;;;;19.05;45.20;100621.27;103868;1286;61471;-83
2023/04/30 08:38:31;;;;;;;;;;;;;;;19.05;45.21;100621.83;103665;1285;61498;-83
2023/04/30 08:41:24;;;;;;;;;;;;;;;19.05;44.99;100621.45;103589;1287;61508;-83
2023/04/30 08:43:52;;;;;;;;;;;;;;;19.05;45.23;100622.67;103680;1286;72607;-83
2023/04/30 08:46:19;;;;;;;;;;;;;;;19.05;45.18;100624.64;103661;1285;74491;-82
2023/04/30 08:48:47;;;;;;;;;;;;;;;19.04;45.12;100624.13;103605;1286;62495;-83
2023/04/30 08:51:13;;;;;;;;;;;;;;;19.05;45.17;100625.20;103613;1286;62434;-83
2023/04/30 08:53:39;;;;;;;;;;;;;;;19.04;45.21;100624.85;103561;1291;61384;-83
2023/04/30 08:56:04;;;;;;;;;;;;;;;19.04;45.11;100625.41;103706;1286;61393;-83
2023/04/30 08:58:30;;;;;;;;;;;;;;;19.04;45.09;100622.36;103607;1285;61403;-84
2023/04/30 09:00:59;;;;;;;;;;;;;;;19.04;45.07;100618.27;103695;1286;61358;-82
2023/04/30 09:03:28;;;;;;;;;;;;;;;19.04;45.13;100617.58;103588;1286;61445;-83
2023/04/30 09:05:57;;;;;;;;;;;;;;;19.04;45.10;100613.48;103520;1285;74591;-83
2023/04/30 09:09:01;;;;;;;;;;;;;;;;;;;;;
2023/04/30 09:11:30;;;;;;;;;;;;;;;19.03;45.19;100614.02;103940;1288;61352;-82
2023/04/30 09:13:57;;;;;;;;;;;;;;;19.04;45.13;100610.99;104052;1285;71797;-82
2023/04/30 09:16:26;;;;;;;;;;;;;;;19.03;45.11;100607.98;103930;1286;74426;-84
2023/04/30 09:18:52;;;;;;;;;;;;;;;19.03;45.09;100605.67;103853;1285;61509;-83
2023/04/30 09:21:36;;;;;;;;;;;;;;;19.04;45.11;100600.64;103746;1286;62015;-84
2023/04/30 09:24:04;;;;;;;;;;;;;;;19.03;45.17;100600.31;103685;1286;72518;-83
2023/04/30 09:26:33;;;;;;;;;;;;;;;19.03;45.13;100599.41;103836;1287;74452;-83
2023/04/30 09:28:59;;;;;;;;;;;;;;;19.03;45.25;100599.63;103899;1286;62439;-83
2023/04/30 09:31:26;;;;;;;;;;;;;;;19.03;45.20;100598.73;103767;1286;61386;-82
2023/04/30 09:33:52;;;;;;;;;;;;;;;19.03;45.19;100590.53;103589;1288;62338;-82
2023/04/30 09:36:19;;;;;;;;;;;;;;;19.03;45.11;100589.27;103487;1289;61513;-82
2023/04/30 09:38:47;;;;;;;;;;;;;;;19.03;45.11;100582.51;103559;1289;61400;-83
2023/04/30 09:41:26;;;;;;;;;;;;;;;19.03;45.13;100574.45;103639;1288;61411;-84
2023/04/30 09:44:04;;;;;;;;;;;;;;;19.03;45.19;100570.56;103484;1289;72341;-83
2023/04/30 09:46:34;;;;;;;;;;;;;;;19.03;45.13;100570.90;103381;1289;74314;-83
2023/04/30 09:49:01;;;;;;;;;;;;;;;19.03;45.17;100567.33;103301;1293;62130;-83
2023/04/30 09:51:35;;;;;;;;;;;;;;;19.03;45.11;100566.62;103437;1288;61725;-83
2023/04/30 09:54:04;;;;;;;;;;;;;;;19.03;45.13;100562.37;103347;1288;73392;-83
2023/04/30 09:56:30;;;;;;;;;;;;;;;19.03;45.20;100560.42;103405;1289;75503;-83
2023/04/30 09:58:56;;;;;;;;;;;;;;;19.03;45.25;100558.99;103699;1289;61340;-82
2023/04/30 10:01:25;;;;;;;;;;;;;;;19.02;45.21;100557.62;103771;1292;61401;-83
2023/04/30 10:03:50;;;;;;;;;;;;;;;19.02;45.16;100561.86;103652;1291;72314;-83
2023/04/30 10:06:25;;;;;;;;;;;;;;;19.02;45.16;100558.67;103650;1286;61381;-83
2023/04/30 10:08:55;;;;;;;;;;;;;;;19.01;45.15;100557.48;103690;1285;61372;-83
2023/04/30 10:11:21;;;;;;;;;;;;;;;19.02;45.23;100553.34;103995;1286;61285;-82
2023/04/30 10:13:49;;;;;;;;;;;;;;;19.01;45.13;100552.48;103965;1286;62754;-83
2023/04/30 10:16:23;;;;;;;;;;;;;;;19.02;45.24;100553.70;103716;1286;74566;-83
2023/04/30 10:18:50;;;;;;;;;;;;;;;19.01;45.25;100546.94;103717;1286;61259;-83
2023/04/30 10:21:16;;;;;;;;;;;;;;;19.01;45.14;100545.88;103696;1288;61407;-82
2023/04/30 10:23:53;;;;;;;;;;;;;;;19.01;45.32;100549.78;103583;1286;72633;-83
2023/04/30 10:26:24;;;;;;;;;;;;;;;19.01;45.27;100546.79;103647;1289;74610;-83
2023/04/30 10:28:54;;;;;;;;;;;;;;;19.01;45.26;100547.34;103678;1285;61388;-81
2023/04/30 10:31:19;;;;;;;;;;;;;;;19.01;45.15;100549.13;104168;1285;62021;-81
2023/04/30 10:34:07;;;;;;;;;;;;;;;19.01;45.24;100549.66;103866;1286;61300;-83
2023/04/30 10:36:44;;;;;;;;;;;;;;;19.00;45.15;100546.66;103832;1289;74400;-83
2023/04/30 10:39:22;;;;;;;;;;;;;;;19.00;45.16;100540.80;103777;1285;61336;-82
2023/04/30 10:41:52;;;;;;;;;;;;;;;19.00;45.31;100534.18;103750;1290;61208;-82
2023/04/30 10:44:21;;;;;;;;;;;;;;;19.00;45.19;100533.66;103652;1287;72378;-83
2023/04/30 10:46:46;;;;;;;;;;;;;;;19.00;45.26;100529.74;103572;1286;62410;-83
2023/04/30 10:49:19;;;;;;;;;;;;;;;19.00;45.37;100530.81;103578;1290;62619;-83
2023/04/30 10:51:50;;;;;;;;;;;;;;;18.99;45.40;100531.56;103507;1286;61388;-84
2023/04/30 10:54:25;;;;;;;;;;;;;;;19.00;45.37;100528.30;103576;1287;72762;-84
2023/04/30 10:56:55;;;;;;;;;;;;;;;18.99;45.22;100531.39;103554;1291;75845;-82
2023/04/30 10:59:22;;;;;;;;;;;;;;;18.98;45.21;100526.81;103563;1285;61493;-83
2023/04/30 11:02:11;;;;;;;;;;;;;;;18.98;45.24;100529.85;103661;1285;61492;-84
2023/04/30 11:04:56;;;;;;;;;;;;;;;18.98;45.23;100520.58;103549;1285;72626;-83
2023/04/30 11:07:38;;;;;;;;;;;;;;;18.98;45.25;100529.36;103629;1290;74386;-83
2023/04/30 11:10:08;;;;;;;;;;;;;;;18.97;45.17;100529.55;103584;1285;61507;-84
2023/04/30 11:12:34;;;;;;;;;;;;;;;18.97;45.33;100528.30;103569;1291;61291;-83
2023/04/30 11:15:21;;;;;;;;;;;;;;;18.97;45.23;100520.28;103583;1285;61361;-83
2023/04/30 11:17:59;;;;;;;;;;;;;;;18.97;45.22;100523.52;103630;1286;74727;-84
2023/04/30 11:20:28;;;;;;;;;;;;;;;18.97;45.32;100520.83;103570;1285;61375;-82
2023/04/30 11:23:13;;;;;;;;;;;;;;;18.97;45.28;100522.09;103561;1285;62435;-83
2023/04/30 11:25:48;;;;;;;;;;;;;;;18.97;45.18;100522.80;103539;1286;72532;-83
2023/04/30 11:28:16;;;;;;;;;;;;;;;18.97;45.22;100522.10;103523;1291;74440;-83
2023/04/30 11:30:49;;;;;;;;;;;;;;;18.97;45.23;100521.20;103701;1285;61336;-83
2023/04/30 11:33:15;;;;;;;;;;;;;;;18.97;45.26;100523.17;103602;1285;61477;-82
2023/04/30 11:35:51;;;;;;;;;;;;;;;18.97;45.20;100516.58;103564;1285;61396;-83
2023/04/30 11:38:27;;;;;;;;;;;;;;;18.97;45.17;100514.61;103631;1291;74638;-82
2023/04/30 11:40:56;;;;;;;;;;;;;;;18.96;45.25;100510.20;103592;1286;61631;-82
2023/04/30 11:43:26;;;;;;;;;;;;;;;18.96;45.25;100503.04;103585;1286;61339;-83
2023/04/30 11:46:02;;;;;;;;;;;;;;;18.97;45.29;100500.88;103707;1285;72568;-83
2023/04/30 11:48:36;;;;;;;;;;;;;;;18.97;45.36;100498.19;103589;1285;74801;-82
2023/04/30 11:51:03;;;;;;;;;;;;;;;18.98;45.24;100493.70;103540;1291;61470;-83
2023/04/30 11:53:32;;;;;;;;;;;;;;;18.98;45.30;100497.08;103605;1286;61358;-83
2023/04/30 11:56:01;;;;;;;;;;;;;;;18.97;45.23;100499.24;103559;1285;72680;-83
2023/04/30 11:58:27;;;;;;;;;;;;;;;18.98;45.18;100494.93;103593;1286;75423;-83
2023/04/30 12:00:53;;;;;;;;;;;;;;;18.98;45.25;100493.70;103617;1286;61420;-82
2023/04/30 12:03:20;;;;;;;;;;;;;;;18.97;45.12;100484.79;103731;1288;61448;-83
2023/04/30 12:05:55;;;;;;;;;;;;;;;18.97;45.06;100489.95;103669;1285;61323;-83
2023/04/30 12:08:29;;;;;;;;;;;;;;;18.98;45.10;100486.91;103668;1285;74233;-83
2023/04/30 12:10:55;;;;;;;;;;;;;;;18.98;45.09;100481.73;103665;1285;61269;-82
2023/04/30 12:13:25;;;;;;;;;;;;;;;18.98;45.19;100480.11;103815;1286;62529;-83
2023/04/30 12:16:00;;;;;;;;;;;;;;;18.99;45.11;100480.77;103727;1285;73429;-83
2023/04/30 12:18:26;;;;;;;;;;;;;;;18.99;45.23;100476.84;103972;1285;74695;-83
2023/04/30 12:20:57;;;;;;;;;;;;;;;18.99;45.25;100471.11;103681;1286;61342;-83
2023/04/30 12:23:23;;;;;;;;;;;;;;;19.00;45.15;100469.46;103654;1284;61673;-83
2023/04/30 12:25:52;;;;;;;;;;;;;;;19.00;45.10;100467.13;103653;1290;61387;-82
2023/04/30 12:28:20;;;;;;;;;;;;;;;19.00;45.11;100470.16;103627;1290;75219;-82
2023/04/30 12:30:46;;;;;;;;;;;;;;;19.00;45.08;100467.13;103722;1284;62412;-83
2023/04/30 12:33:15;;;;;;;;;;;;;;;19.00;45.03;100464.43;103729;1286;61314;-82
2023/04/30 12:35:42;;;;;;;;;;;;;;;19.01;45.03;100467.09;103460;1291;73372;-83
2023/04/30 12:38:10;;;;;;;;;;;;;;;19.02;44.96;100467.58;103481;1289;61754;-82
2023/04/30 12:40:43;;;;;;;;;;;;;;;19.01;45.04;100467.04;103489;1288;61212;-82
2023/04/30 12:43:14;;;;;;;;;;;;;;;19.02;45.02;100462.02;103334;1294;61876;-82
2023/04/30 12:45:55;;;;;;;;;;;;;;;19.02;45.01;100455.79;103436;1291;72570;-83
2023/04/30 12:48:32;;;;;;;;;;;;;;;19.02;44.98;100454.52;103423;1288;75421;-83
2023/04/30 12:51:01;;;;;;;;;;;;;;;19.02;44.79;100453.08;103276;1289;62579;-83
2023/04/30 12:53:36;;;;;;;;;;;;;;;19.02;44.85;100448.60;103415;1289;61366;-82